Time;durP1;ratioP1;P1;durP2;ratioP2;P2;SDS_P1;SDS_P2;PMS_P1;PMS_P2;Temp;Humidity;BMP_temperature;BMP_pressure;BME280_temperature;BME280_humidity;BME280_pressure;Samples;Min_cycle;Max_cycle;Signal;HPM_P1;HPM_P2
2023/06/01 00:00:26;;;;;;;13.80;6.37;;;15.00;91.80;;;14.69;63.49;101560.84;5076019;28;20240;-71
2023/06/01 00:02:59;;;;;;;8.40;6.50;;;14.90;92.00;;;14.63;63.40;101553.44;5076035;28;20265;-71
2023/06/01 00:05:33;;;;;;;12.60;6.77;;;14.80;92.30;;;14.69;63.48;101560.84;5075956;28;20277;-71
2023/06/01 00:08:06;;;;;;;15.13;7.40;;;14.90;92.50;;;14.34;65.58;101554.91;5075726;28;20652;-71
2023/06/01 00:10:40;;;;;;;11.80;6.07;;;14.60;92.80;;;14.63;63.53;101556.13;5075608;28;20551;-71
2023/06/01 00:13:13;;;;;;;10.60;6.23;;;14.80;92.80;;;14.52;63.83;101561.00;5075874;28;20261;-70
2023/06/01 00:15:47;;;;;;;14.63;7.40;;;14.60;92.80;;;14.34;65.31;101571.91;5075605;28;20248;-70
2023/06/01 00:18:20;;;;;;;14.77;6.87;;;14.50;93.40;;;14.60;63.51;101561.00;5075842;28;20194;-70
2023/06/01 00:20:53;;;;;;;13.13;6.60;;;14.80;92.70;;;14.22;64.26;101570.47;5075774;28;20288;-70
2023/06/01 00:23:28;;;;;;;11.73;6.90;;;14.50;93.50;;;14.42;63.70;101553.06;5075754;28;20190;-70
2023/06/01 00:26:02;;;;;;;10.70;6.80;;;14.60;93.00;;;14.42;63.95;101563.84;5075655;28;20221;-70
2023/06/01 00:28:36;;;;;;;9.97;5.97;;;14.60;93.20;;;14.40;63.99;101565.84;5075650;28;20189;-70
2023/06/01 00:31:09;;;;;;;11.13;7.03;;;14.60;92.80;;;13.96;65.44;101553.56;5075586;28;20289;-70
2023/06/01 00:33:42;;;;;;;9.80;5.83;;;14.20;93.20;;;13.89;64.99;101563.31;5075370;28;20627;-70
2023/06/01 00:36:16;;;;;;;12.87;6.57;;;14.20;93.60;;;13.66;65.53;101552.28;5075786;28;20630;-70
2023/06/01 00:38:49;;;;;;;9.67;6.20;;;14.00;93.80;;;13.73;65.26;101557.84;5076010;28;20204;-70
2023/06/01 00:41:22;;;;;;;14.43;6.43;;;14.00;94.20;;;13.64;66.27;101556.94;5075805;28;20743;-70
2023/06/01 00:43:56;;;;;;;15.20;6.83;;;13.90;94.60;;;13.78;65.60;101556.34;5075904;28;20205;-70
2023/06/01 00:46:32;;;;;;;13.23;6.07;;;14.10;94.10;;;13.73;66.01;101554.13;5075751;28;20301;-71
2023/06/01 00:49:06;;;;;;;11.73;6.47;;;14.10;94.10;;;13.45;67.20;101549.13;5075658;28;20193;-71
2023/06/01 00:51:40;;;;;;;10.97;5.57;;;13.80;94.30;;;13.79;65.74;101557.19;5074829;28;20756;-71
2023/06/01 00:54:14;;;;;;;9.67;6.27;;;14.00;94.30;;;13.90;65.25;101546.16;5075434;28;20198;-71
2023/06/01 00:56:47;;;;;;;13.53;6.30;;;14.20;93.80;;;13.80;65.88;101545.44;5075134;28;20186;-71
2023/06/01 00:59:21;;;;;;;11.00;5.70;;;14.00;94.40;;;13.98;64.48;101551.56;5075070;28;20276;-71
2023/06/01 01:01:54;;;;;;;8.80;5.73;;;14.20;93.80;;;13.91;65.00;101545.13;5074906;28;20235;-71
2023/06/01 01:04:28;;;;;;;11.37;5.80;;;14.10;93.90;;;13.58;66.05;101554.91;5074876;28;20196;-71
2023/06/01 01:07:20;;;;;;;9.37;5.63;;;13.90;94.60;;;13.73;65.74;101554.13;5074614;28;20213;-71
2023/06/01 01:10:08;;;;;;;8.40;5.50;;;13.90;94.40;;;13.46;67.06;101559.72;5074837;28;20262;-71
2023/06/01 01:12:54;;;;;;;12.87;5.33;;;13.70;95.00;;;13.68;65.35;101556.47;5074929;28;20332;-71
2023/06/01 01:15:44;;;;;;;10.63;5.50;;;14.00;94.50;;;13.51;66.23;101553.84;5074711;28;20212;-71
2023/06/01 01:18:32;;;;;;;10.00;5.43;;;13.80;94.60;;;13.34;67.25;101546.69;5074623;28;20186;-71
2023/06/01 01:21:21;;;;;;;11.47;5.77;;;13.80;94.70;;;13.28;67.27;101548.19;5074517;28;20194;-71
2023/06/01 01:24:24;;;;;;;11.33;5.30;;;13.60;95.10;;;13.51;66.54;101543.94;5075049;28;20556;-71
2023/06/01 01:27:25;;;;;;;10.77;5.50;;;13.80;95.10;;;13.34;67.45;101536.78;5074438;28;20209;-71
2023/06/01 01:30:05;;;;;;;9.97;5.50;;;13.80;94.90;;;13.36;67.51;101550.06;5074089;28;20241;-71
2023/06/01 01:32:41;;;;;;;11.93;5.80;;;13.70;95.20;;;13.23;67.56;101546.94;5074300;28;20298;-71
2023/06/01 01:35:17;;;;;;;11.47;5.57;;;13.60;95.80;;;13.48;66.85;101548.81;5074306;28;20195;-71
2023/06/01 01:37:56;;;;;;;8.50;5.07;;;13.70;95.40;;;13.50;67.12;101550.31;5074257;28;20193;-71
2023/06/01 01:40:30;;;;;;;12.00;5.90;;;13.70;95.30;;;13.59;66.65;101552.06;5073928;28;20225;-69
2023/06/01 01:43:05;;;;;;;8.20;6.00;;;13.90;95.40;;;13.29;67.10;101546.34;5074120;28;20400;-69
2023/06/01 01:45:40;;;;;;;10.63;6.00;;;13.70;95.50;;;13.27;67.08;101546.50;5073836;28;20666;-69
2023/06/01 01:48:23;;;;;;;9.30;5.67;;;13.60;95.50;;;13.15;68.57;101542.38;5074567;28;20606;-71
2023/06/01 01:51:08;;;;;;;12.23;6.00;;;13.50;96.00;;;12.92;68.74;101541.16;5073992;28;20272;-71
2023/06/01 01:53:45;;;;;;;10.30;5.97;;;13.30;96.30;;;12.98;69.35;101533.28;5073992;28;20224;-71
2023/06/01 01:56:21;;;;;;;12.83;6.07;;;13.30;96.50;;;13.13;68.26;101533.63;5073905;28;20192;-71
2023/06/01 01:58:56;;;;;;;10.23;6.03;;;13.40;96.10;;;13.27;67.01;101534.88;5074048;28;20284;-70
2023/06/01 02:01:30;;;;;;;12.13;6.13;;;13.60;95.80;;;13.32;67.28;101537.94;5073828;28;20312;-70
2023/06/01 02:04:07;;;;;;;10.10;6.17;;;13.60;95.70;;;13.39;67.48;101530.94;5073873;28;20193;-70
2023/06/01 02:06:41;;;;;;;12.40;6.47;;;13.70;95.60;;;12.83;69.97;101531.34;5073423;28;20207;-70
2023/06/01 02:09:15;;;;;;;11.70;6.63;;;13.20;96.30;;;12.87;70.03;101524.66;5073727;28;20189;-71
2023/06/01 02:11:48;;;;;;;11.43;6.63;;;13.20;96.60;;;12.77;69.89;101531.97;5073387;28;20308;-70
2023/06/01 02:14:22;;;;;;;15.77;6.53;;;13.10;96.70;;;12.80;69.59;101531.66;5073699;28;20280;-70
2023/06/01 02:16:55;;;;;;;14.20;5.87;;;13.10;97.00;;;12.94;69.07;101523.03;5073366;28;20213;-70
2023/06/01 02:19:29;;;;;;;8.97;5.90;;;13.30;96.80;;;13.04;68.57;101529.16;5073079;28;20281;-70
2023/06/01 02:22:02;;;;;;;11.13;6.10;;;13.40;96.60;;;13.02;69.34;101529.31;5073252;28;20673;-71
2023/06/01 02:24:36;;;;;;;9.83;5.80;;;13.40;96.40;;;13.08;68.45;101533.22;5073327;28;20232;-71
2023/06/01 02:27:11;;;;;;;9.50;5.80;;;13.40;96.30;;;12.96;68.90;101526.41;5073489;28;20216;-71
2023/06/01 02:29:45;;;;;;;9.33;5.43;;;13.30;96.80;;;12.84;69.44;101527.66;5073514;28;20193;-70
2023/06/01 02:32:18;;;;;;;9.80;6.07;;;13.20;96.90;;;12.73;70.41;101535.97;5073438;28;20236;-71
2023/06/01 02:34:51;;;;;;;10.87;5.83;;;13.10;97.20;;;12.67;70.38;101526.69;5073502;28;20198;-71
2023/06/01 02:37:25;;;;;;;10.57;5.90;;;13.00;97.40;;;12.69;70.74;101536.28;5073412;28;20277;-71
2023/06/01 02:39:58;;;;;;;11.77;6.43;;;13.00;97.40;;;12.81;69.89;101517.22;5073402;28;20189;-71
2023/06/01 02:42:31;;;;;;;14.37;7.43;;;13.10;97.30;;;12.74;70.57;101532.28;5073528;28;20315;-71
2023/06/01 02:45:05;;;;;;;11.63;6.90;;;13.10;97.50;;;12.71;70.58;101528.88;5073325;28;20196;-71
2023/06/01 02:47:38;;;;;;;13.27;7.27;;;13.10;97.50;;;12.44;71.02;101520.91;5073007;28;20248;-71
2023/06/01 02:50:14;;;;;;;9.80;6.00;;;12.90;97.70;;;12.54;71.89;101526.22;5073012;28;20682;-71
2023/06/01 02:52:48;;;;;;;11.77;6.27;;;12.90;98.10;;;12.52;71.69;101529.06;5072962;28;20256;-71
2023/06/01 02:55:21;;;;;;;10.60;6.30;;;12.90;97.80;;;12.67;70.34;101521.31;5073008;28;20646;-71
2023/06/01 02:57:54;;;;;;;16.47;7.40;;;13.00;97.60;;;12.69;70.90;101519.31;5073530;28;20189;-71
2023/06/01 03:00:28;;;;;;;13.50;6.40;;;13.00;97.60;;;12.67;70.87;101521.31;5073237;28;20203;-71
2023/06/01 03:03:03;;;;;;;9.13;6.90;;;13.00;97.70;;;12.62;70.83;101524.47;5072829;28;20792;-70
2023/06/01 03:05:37;;;;;;;10.23;6.90;;;13.00;98.20;;;12.56;71.00;101525.09;5073217;28;20194;-70
2023/06/01 03:08:11;;;;;;;11.30;6.83;;;13.00;97.60;;;12.40;71.10;101519.53;5073109;28;20206;-70
2023/06/01 03:10:45;;;;;;;11.17;6.53;;;12.80;98.00;;;12.37;71.68;101514.47;5073167;28;20279;-70
2023/06/01 03:13:18;;;;;;;14.77;7.20;;;12.80;98.20;;;12.36;72.31;101515.50;5073077;28;20320;-70
2023/06/01 03:15:51;;;;;;;11.33;6.57;;;12.80;98.10;;;12.39;72.28;101517.03;5072972;28;20636;-71
2023/06/01 03:18:25;;;;;;;14.50;6.57;;;12.70;98.40;;;12.51;71.22;101518.47;5072749;28;20665;-70
2023/06/01 03:20:58;;;;;;;11.53;6.90;;;13.00;97.80;;;12.28;71.33;101515.41;5072657;28;20190;-70
2023/06/01 03:23:32;;;;;;;13.03;7.10;;;12.80;98.00;;;12.21;71.90;101514.31;5073045;28;20194;-70
2023/06/01 03:26:05;;;;;;;14.67;6.87;;;12.70;98.30;;;12.49;71.13;101512.41;5072999;28;20190;-70
2023/06/01 03:28:39;;;;;;;13.03;6.83;;;12.90;98.00;;;12.50;71.13;101506.88;5073731;28;20252;-70
2023/06/01 03:31:13;;;;;;;16.73;6.73;;;12.90;98.60;;;12.59;70.31;101502.44;5075102;28;20190;-70
2023/06/01 03:33:46;;;;;;;12.87;6.77;;;13.00;97.90;;;12.43;72.09;101504.97;5076629;28;20190;-70
2023/06/01 03:36:20;;;;;;;12.83;6.53;;;12.80;98.30;;;12.53;71.18;101498.53;5077497;28;20190;-70
2023/06/01 03:38:53;;;;;;;11.80;6.60;;;12.90;98.10;;;12.45;70.79;101492.22;5076953;28;20189;-71
2023/06/01 03:41:27;;;;;;;11.17;6.23;;;12.90;98.30;;;12.53;71.48;101490.47;5077232;28;20640;-71
2023/06/01 03:44:00;;;;;;;11.30;6.73;;;13.00;97.90;;;12.44;71.36;101509.31;5076902;28;20281;-70
2023/06/01 03:46:33;;;;;;;13.83;7.47;;;12.90;97.90;;;12.52;70.48;101506.72;5076760;28;20272;-71
2023/06/01 03:49:07;;;;;;;12.70;7.10;;;13.00;97.80;;;12.45;70.30;101513.72;5076430;28;20255;-70
2023/06/01 03:51:40;;;;;;;14.17;7.20;;;13.00;97.80;;;12.31;72.02;101516.94;5076242;28;20328;-70
2023/06/01 03:54:13;;;;;;;11.87;6.97;;;12.80;98.20;;;12.08;72.69;101508.47;5076318;28;20284;-70
2023/06/01 03:56:47;;;;;;;12.97;7.40;;;12.60;98.60;;;12.23;71.32;101512.31;5076271;28;20193;-71
2023/06/01 03:59:20;;;;;;;12.33;7.10;;;12.80;98.40;;;12.24;71.93;101503.28;5076223;28;20277;-71
2023/06/01 04:01:54;;;;;;;13.73;7.50;;;12.70;98.80;;;12.27;71.75;101502.97;5076086;28;20229;-71
2023/06/01 04:04:32;;;;;;;13.87;7.33;;;12.70;99.00;;;12.37;71.41;101498.38;5076101;28;20190;-71
2023/06/01 04:07:09;;;;;;;12.60;7.37;;;12.80;98.40;;;12.38;72.03;101502.75;5075816;28;20192;-71
2023/06/01 04:09:43;;;;;;;12.90;7.10;;;12.80;98.40;;;12.31;72.56;101506.19;5075969;28;20287;-71
2023/06/01 04:12:16;;;;;;;13.53;7.20;;;12.70;98.70;;;12.38;71.50;101505.44;5075919;28;20313;-71
2023/06/01 04:14:49;;;;;;;13.67;7.80;;;12.80;98.50;;;12.26;72.46;101501.25;5075673;28;20683;-71
2023/06/01 04:17:23;;;;;;;13.50;7.53;;;12.70;98.70;;;12.32;72.67;101506.06;5075795;28;20342;-71
2023/06/01 04:19:56;;;;;;;9.83;6.73;;;12.80;98.80;;;12.35;72.42;101495.00;5075827;28;20186;-71
2023/06/01 04:22:29;;;;;;;12.60;7.40;;;12.70;98.60;;;12.39;71.61;101509.81;5075424;28;20221;-71
2023/06/01 04:25:03;;;;;;;13.33;7.20;;;12.80;98.50;;;12.19;73.04;101505.59;5075739;28;20201;-71
2023/06/01 04:27:37;;;;;;;9.93;6.23;;;12.60;99.00;;;12.37;72.22;101505.56;5075716;28;20190;-71
2023/06/01 04:30:13;;;;;;;11.20;6.50;;;12.80;98.80;;;12.26;73.19;101512.00;5075629;28;20243;-71
2023/06/01 04:32:47;;;;;;;11.57;6.00;;;12.70;99.00;;;12.12;73.64;101510.69;5075440;28;20263;-71
2023/06/01 04:35:21;;;;;;;9.60;6.37;;;12.60;99.00;;;11.99;73.95;101509.38;5075539;28;20271;-71
2023/06/01 04:37:55;;;;;;;9.23;5.80;;;12.40;99.60;;;11.93;73.99;101509.97;5075132;28;20243;-71
2023/06/01 04:40:29;;;;;;;9.43;5.67;;;12.50;99.60;;;11.85;74.73;101515.25;5075362;28;20238;-71
2023/06/01 04:43:03;;;;;;;9.53;5.87;;;12.30;99.90;;;11.81;74.85;101517.41;5074387;28;20316;-71
2023/06/01 04:45:38;;;;;;;11.03;5.47;;;12.30;99.90;;;11.95;74.59;101521.41;5075067;28;20567;-71
2023/06/01 04:48:12;;;;;;;10.63;5.40;;;12.40;99.80;;;11.72;76.12;101520.09;5075247;28;20213;-71
2023/06/01 04:50:45;;;;;;;9.33;5.63;;;12.20;99.90;;;11.71;76.32;101523.81;5074954;28;20581;-71
2023/06/01 04:53:19;;;;;;;10.53;6.57;;;12.20;99.90;;;11.81;75.74;101519.25;5074866;28;20665;-71
2023/06/01 04:55:53;;;;;;;12.13;6.20;;;12.30;99.90;;;11.79;75.79;101516.69;5075476;28;20204;-71
2023/06/01 04:58:27;;;;;;;10.23;6.10;;;12.30;99.90;;;11.86;75.77;101514.25;5074857;28;20637;-71
2023/06/01 05:01:01;;;;;;;11.10;5.70;;;12.30;99.90;;;12.02;75.62;101509.91;5075003;28;20189;-71
2023/06/01 05:03:34;;;;;;;10.63;5.87;;;12.50;99.90;;;11.99;75.27;101501.31;5074694;28;20642;-71
2023/06/01 05:06:08;;;;;;;10.47;5.60;;;12.50;99.90;;;11.99;74.99;101504.00;5074909;28;20190;-71
2023/06/01 05:08:42;;;;;;;12.10;5.70;;;12.40;99.90;;;12.07;75.20;101496.03;5074881;28;20224;-71
2023/06/01 05:11:17;;;;;;;8.97;5.43;;;12.60;99.90;;;12.16;74.40;101497.81;5074789;28;20225;-71
2023/06/01 05:13:52;;;;;;;11.80;5.77;;;12.60;99.90;;;12.26;74.60;101493.22;5074830;28;20292;-71
2023/06/01 05:16:26;;;;;;;11.47;5.77;;;12.70;99.80;;;12.16;74.89;101485.22;5074495;28;20710;-71
2023/06/01 05:19:00;;;;;;;13.13;6.20;;;12.60;99.80;;;12.10;74.57;101488.53;5074710;28;20186;-71
2023/06/01 05:21:33;;;;;;;13.23;5.87;;;12.60;99.90;;;12.17;74.27;101489.63;5074251;28;20797;-70
2023/06/01 05:24:07;;;;;;;10.77;5.60;;;12.70;99.90;;;12.08;74.32;101492.38;5074589;28;20194;-70
2023/06/01 05:26:41;;;;;;;11.17;5.60;;;12.60;99.70;;;12.16;73.38;101495.97;5074563;28;20189;-70
2023/06/01 05:29:14;;;;;;;8.67;6.13;;;12.60;99.90;;;12.05;74.53;101480.09;5074445;28;20214;-70
2023/06/01 05:31:48;;;;;;;10.13;5.37;;;12.50;99.80;;;12.08;73.81;101481.63;5074050;28;20606;-70
2023/06/01 05:34:22;;;;;;;11.07;6.10;;;12.50;99.70;;;12.05;74.08;101484.63;5074407;28;20185;-70
2023/06/01 05:36:55;;;;;;;9.70;5.40;;;12.50;99.80;;;12.13;73.98;101479.31;5074624;28;20200;-70
2023/06/01 05:39:29;;;;;;;11.83;5.23;;;12.60;99.90;;;12.22;73.40;101488.31;5074015;28;20181;-71
2023/06/01 05:42:02;;;;;;;11.67;6.10;;;12.70;99.60;;;12.06;74.83;101486.28;5074439;28;20320;-71
2023/06/01 05:44:36;;;;;;;8.53;5.80;;;12.60;99.80;;;11.99;75.16;101493.25;5074253;28;20200;-71
2023/06/01 05:47:10;;;;;;;11.20;5.50;;;12.40;99.90;;;12.02;74.19;101487.63;5074206;28;20192;-71
2023/06/01 05:49:44;;;;;;;12.43;5.33;;;12.50;99.90;;;11.99;74.80;101487.91;5074286;28;20212;-71
2023/06/01 05:52:17;;;;;;;11.43;5.03;;;12.50;99.90;;;12.09;74.04;101494.88;5074003;28;20260;-71
2023/06/01 05:54:53;;;;;;;8.80;4.93;;;12.60;99.90;;;12.12;73.83;101488.41;5073926;28;20197;-71
2023/06/01 05:57:27;;;;;;;8.40;4.73;;;12.60;99.70;;;12.15;74.04;101490.78;5074031;28;20536;-71
2023/06/01 06:00:00;;;;;;;8.93;4.90;;;12.60;99.70;;;12.15;73.25;101482.72;5073674;28;20642;-71
2023/06/01 06:02:34;;;;;;;9.97;5.03;;;12.70;99.70;;;12.24;73.76;101491.69;5073860;28;20229;-71
2023/06/01 06:05:10;;;;;;;10.03;5.10;;;12.70;99.50;;;12.14;73.88;101481.03;5073819;28;20196;-71
2023/06/01 06:07:43;;;;;;;11.13;4.93;;;12.60;99.50;;;12.14;73.18;101481.88;5073544;28;20596;-71
2023/06/01 06:10:17;;;;;;;10.60;5.40;;;12.60;99.30;;;12.06;73.84;101483.59;5073743;28;20245;-71
2023/06/01 06:12:51;;;;;;;10.23;5.23;;;12.50;99.60;;;12.02;74.07;101488.44;5073695;28;20229;-71
2023/06/01 06:15:25;;;;;;;12.03;5.30;;;12.60;99.50;;;12.15;73.09;101483.56;5073609;28;20189;-71
2023/06/01 06:17:58;;;;;;;11.63;5.50;;;12.60;99.40;;;12.19;72.71;101489.47;5073815;28;20217;-71
2023/06/01 06:20:32;;;;;;;9.43;5.73;;;12.70;99.30;;;12.19;73.21;101482.25;5073359;28;20201;-68
2023/06/01 06:23:05;;;;;;;8.17;5.53;;;12.70;99.20;;;12.04;73.95;101486.47;5073591;28;20225;-75
2023/06/01 06:25:39;;;;;;;13.00;5.73;;;12.60;99.80;;;12.23;72.70;101485.47;5073384;28;20752;-75
2023/06/01 06:28:13;;;;;;;11.03;5.50;;;12.70;99.20;;;12.13;73.58;101484.69;5073639;28;20238;-75
2023/06/01 06:30:46;;;;;;;8.70;5.17;;;12.60;99.50;;;12.18;73.19;101483.25;5073484;28;20216;-75
2023/06/01 06:33:19;;;;;;;15.33;6.73;;;12.70;99.60;;;12.12;73.68;101478.47;5073572;28;20228;-75
2023/06/01 06:35:54;;;;;;;10.57;6.07;;;12.70;99.50;;;12.20;73.87;101472.34;5073523;28;20201;-75
2023/06/01 06:38:27;;;;;;;12.90;5.57;;;12.80;99.60;;;12.24;73.15;101479.09;5073511;28;20216;-75
2023/06/01 06:41:01;;;;;;;12.83;6.70;;;12.90;99.40;;;12.31;73.97;101482.88;5073059;28;20634;-75
2023/06/01 06:43:35;;;;;;;15.77;5.80;;;12.80;99.50;;;12.43;73.39;101476.25;5073156;28;20660;-75
2023/06/01 06:46:08;;;;;;;15.63;6.10;;;12.90;99.40;;;12.36;73.66;101494.00;5073457;28;20267;-75
2023/06/01 06:48:42;;;;;;;9.87;5.43;;;12.90;99.30;;;12.47;73.00;101493.75;5073791;28;20236;-75
2023/06/01 06:51:15;;;;;;;13.30;5.43;;;13.00;99.20;;;12.41;72.11;101488.16;5073236;28;20209;-75
2023/06/01 06:53:49;;;;;;;8.30;5.60;;;12.90;98.90;;;12.48;72.55;101487.38;5073059;28;20733;-75
2023/06/01 06:56:22;;;;;;;12.97;6.20;;;13.00;99.10;;;12.50;72.60;101493.44;5073361;28;20189;-75
2023/06/01 06:58:56;;;;;;;8.60;5.50;;;13.00;98.90;;;12.44;72.51;101488.69;5073033;28;20285;-75
2023/06/01 07:01:43;;;;;;;7.27;5.20;;;12.90;99.10;;;12.54;72.52;101481.41;5073231;28;20229;-75
2023/06/01 07:04:16;;;;;;;10.10;5.80;;;13.00;99.00;;;12.57;72.80;101477.53;5073259;28;20186;-75
2023/06/01 07:06:50;;;;;;;9.90;5.53;;;13.10;99.00;;;12.51;72.29;101484.38;5075834;28;20323;-75
2023/06/01 07:09:24;;;;;;;12.40;6.03;;;13.00;99.00;;;12.57;72.93;101478.41;5076869;28;20705;-75
2023/06/01 07:11:57;;;;;;;8.90;6.03;;;13.00;99.00;;;12.58;73.02;101490.00;5077105;28;20311;-75
2023/06/01 07:14:31;;;;;;;8.93;5.37;;;13.10;99.00;;;12.51;72.82;101479.03;5077108;28;20190;-75
2023/06/01 07:17:05;;;;;;;10.80;6.00;;;13.00;99.00;;;12.60;72.71;101482.63;5076733;28;20248;-75
2023/06/01 07:19:39;;;;;;;8.57;5.70;;;13.10;99.20;;;12.66;72.11;101485.53;5077039;28;20189;-75
2023/06/01 07:22:13;;;;;;;10.90;5.63;;;13.20;99.00;;;12.55;72.54;101475.03;5076954;28;20313;-75
2023/06/01 07:24:47;;;;;;;9.57;5.70;;;13.10;99.00;;;12.68;72.43;101483.53;5076900;28;20281;-75
2023/06/01 07:27:21;;;;;;;7.53;5.67;;;13.20;99.00;;;12.68;72.66;101488.06;5076910;28;20217;-75
2023/06/01 07:29:55;;;;;;;13.53;6.60;;;13.20;98.90;;;12.73;71.92;101487.59;5076791;28;20224;-75
2023/06/01 07:32:29;;;;;;;13.17;6.70;;;13.20;98.70;;;12.73;72.34;101490.28;5076651;28;20260;-75
2023/06/01 07:35:05;;;;;;;14.67;6.90;;;13.20;98.70;;;12.67;71.95;101506.00;5076727;28;20200;-75
2023/06/01 07:37:38;;;;;;;11.70;6.00;;;13.20;98.60;;;12.75;72.28;101481.06;5076677;28;20276;-75
2023/06/01 07:40:13;;;;;;;11.07;6.50;;;13.20;98.70;;;12.75;72.04;101486.44;5076644;28;20285;-75
2023/06/01 07:42:47;;;;;;;13.77;7.00;;;13.30;98.60;;;12.64;71.91;101486.69;5076565;28;20225;-74
2023/06/01 07:45:21;;;;;;;10.47;5.70;;;13.10;98.70;;;12.79;72.65;101497.72;5077528;28;20196;-75
2023/06/01 07:47:54;;;;;;;9.40;6.17;;;13.20;98.90;;;12.84;71.45;101487.34;5076511;28;20613;-75
2023/06/01 07:50:30;;;;;;;9.97;5.87;;;13.30;98.30;;;12.74;71.42;101500.03;5076071;28;20574;-75
2023/06/01 07:53:04;;;;;;;11.33;6.03;;;13.30;98.10;;;12.74;71.50;101495.47;5076076;28;20570;-75
2023/06/01 07:55:38;;;;;;;9.30;6.20;;;13.20;98.10;;;12.77;71.23;101488.97;5076069;28;20630;-75
2023/06/01 07:58:12;;;;;;;9.63;6.60;;;13.30;98.30;;;12.81;71.29;101493.03;5076408;28;20190;-75
2023/06/01 08:00:45;;;;;;;12.90;6.60;;;13.30;98.30;;;12.73;71.32;101487.59;5076327;28;20217;-75
2023/06/01 08:03:20;;;;;;;13.27;6.40;;;13.20;98.30;;;12.87;72.00;101495.09;5076164;28;20248;-75
2023/06/01 08:05:57;;;;;;;11.93;6.40;;;13.40;98.60;;;12.96;71.35;101488.78;5076231;28;20197;-75
2023/06/01 08:08:30;;;;;;;15.50;7.37;;;13.50;98.50;;;12.96;71.29;101489.63;5076179;28;20603;-75
2023/06/01 08:11:03;;;;;;;13.43;7.40;;;13.50;98.30;;;12.98;71.80;101489.47;5075967;28;20245;-75
2023/06/01 08:13:37;;;;;;;10.67;6.80;;;13.50;98.60;;;12.94;71.42;101485.41;5076043;28;20190;-75
2023/06/01 08:16:12;;;;;;;11.77;6.83;;;13.40;98.60;;;12.96;71.57;101500.38;5075780;28;20304;-75
2023/06/01 08:18:46;;;;;;;15.73;7.53;;;13.50;98.30;;;13.04;71.09;101491.53;5074320;28;20653;-75
2023/06/01 08:21:20;;;;;;;10.77;6.37;;;13.50;99.00;;;13.02;70.72;101497.03;5075951;28;20222;-75
2023/06/01 08:23:54;;;;;;;11.57;6.90;;;13.50;98.40;;;12.99;70.94;101493.81;5075584;28;20197;-75
2023/06/01 08:26:28;;;;;;;12.97;7.50;;;13.60;97.90;;;13.00;71.20;101490.16;5075494;28;20240;-75
2023/06/01 08:29:03;;;;;;;11.83;6.53;;;13.50;98.10;;;13.07;70.65;101493.91;5075750;28;20247;-75
2023/06/01 08:31:38;;;;;;;12.83;6.63;;;13.60;98.00;;;13.09;70.48;101489.22;5075578;28;20267;-75
2023/06/01 08:34:11;;;;;;;14.43;6.80;;;13.60;98.10;;;13.10;70.41;101486.38;5075695;28;20193;-75
2023/06/01 08:36:44;;;;;;;12.90;7.47;;;13.60;98.00;;;13.13;70.24;101485.22;5075591;28;20232;-75
2023/06/01 08:39:28;;;;;;;12.03;6.80;;;13.60;98.40;;;13.21;70.75;101482.59;5075566;28;20218;-75
2023/06/01 08:42:14;;;;;;;9.87;6.93;;;13.70;98.10;;;13.29;69.74;101479.94;5075485;28;20231;-72
2023/06/01 08:44:48;;;;;;;11.47;6.43;;;13.80;97.80;;;13.30;69.69;101481.63;5075445;28;20193;-70
2023/06/01 08:47:24;;;;;;;15.63;7.20;;;13.80;97.50;;;13.30;69.95;101487.00;5075425;28;20193;-70
2023/06/01 08:50:00;;;;;;;12.47;6.53;;;13.70;97.80;;;13.32;69.55;101481.47;5075292;28;20185;-71
2023/06/01 08:52:37;;;;;;;13.17;7.23;;;13.80;97.60;;;13.36;70.17;101475.59;5074933;28;20642;-71
2023/06/01 08:55:14;;;;;;;16.57;6.67;;;13.80;97.70;;;13.36;69.36;101475.59;5075260;28;20272;-71
2023/06/01 08:57:48;;;;;;;11.97;7.10;;;13.80;97.60;;;13.31;70.15;101477.94;5074844;28;20640;-71
2023/06/01 09:00:25;;;;;;;14.57;7.63;;;13.80;97.80;;;13.14;70.93;101477.00;5075178;28;20271;-71
2023/06/01 09:02:58;;;;;;;14.30;6.93;;;13.70;98.00;;;13.11;70.86;101482.72;5075022;28;20593;-71
2023/06/01 09:05:32;;;;;;;11.03;7.07;;;13.60;98.20;;;13.23;71.37;101485.94;5074695;28;20669;-71
2023/06/01 09:08:07;;;;;;;9.77;6.30;;;13.70;98.40;;;13.30;71.30;101481.63;5075017;28;20605;-71
2023/06/01 09:10:40;;;;;;;9.60;6.53;;;13.80;98.20;;;13.35;70.83;101483.84;5074853;28;20225;-71
2023/06/01 09:13:14;;;;;;;8.87;6.30;;;13.80;98.20;;;13.18;70.88;101482.91;5074807;28;20312;-71
2023/06/01 09:16:02;;;;;;;9.33;6.33;;;13.70;98.10;;;13.24;70.96;101476.91;5074660;28;20209;-71
2023/06/01 09:18:36;;;;;;;13.40;6.93;;;13.70;98.30;;;13.25;71.19;101478.59;5074778;28;20277;-71
2023/06/01 09:21:20;;;;;;;14.93;6.83;;;13.70;98.30;;;13.33;71.09;101459.78;5074296;28;20704;-71
2023/06/01 09:23:54;;;;;;;8.53;6.70;;;13.80;98.30;;;13.31;70.69;101467.19;5074676;28;20196;-71
2023/06/01 09:26:31;;;;;;;11.80;6.53;;;13.80;98.20;;;13.37;71.31;101471.91;5074608;28;20292;-71
2023/06/01 09:29:06;;;;;;;8.87;6.60;;;13.80;98.40;;;13.41;71.30;101459.84;5073889;28;20627;-71
2023/06/01 09:31:45;;;;;;;10.23;6.57;;;13.90;98.20;;;13.37;70.41;101454.94;5074336;28;20320;-71
2023/06/01 09:34:21;;;;;;;10.93;6.80;;;13.90;98.10;;;13.36;71.08;101456.78;5074431;28;20196;-71
2023/06/01 09:36:57;;;;;;;11.93;7.17;;;13.90;98.10;;;13.48;71.29;101455.50;5074433;28;20284;-71
2023/06/01 09:39:35;;;;;;;12.17;6.97;;;14.00;98.20;;;13.48;71.20;101451.97;5074346;28;20285;-71
2023/06/01 09:42:10;;;;;;;12.70;8.10;;;14.00;98.30;;;13.38;71.48;101452.09;5074244;28;20275;-71
2023/06/01 09:44:46;;;;;;;15.07;7.40;;;13.90;98.40;;;13.46;72.40;101448.59;5074249;28;20185;-71
2023/06/01 09:47:21;;;;;;;14.67;8.20;;;14.00;98.90;;;13.47;71.41;101440.34;5074275;28;20268;-71
2023/06/01 09:50:02;;;;;;;11.27;7.10;;;14.00;98.70;;;13.56;72.02;101450.13;5074247;28;20251;-71
2023/06/01 09:52:36;;;;;;;14.47;6.73;;;14.00;98.60;;;13.64;71.28;101438.56;5074011;28;20343;-71
2023/06/01 09:55:12;;;;;;;10.10;6.57;;;14.10;98.30;;;13.69;70.75;101439.78;5073780;28;20229;-71
2023/06/01 09:57:46;;;;;;;8.80;5.27;;;14.20;98.20;;;13.69;70.62;101444.31;5074022;28;20284;-71
2023/06/01 10:00:27;;;;;;;6.03;4.87;;;14.20;97.90;;;13.66;70.45;101441.94;5073998;28;20213;-71
2023/06/01 10:03:01;;;;;;;8.90;5.30;;;14.10;98.10;;;13.68;70.61;101443.47;5074122;28;20235;-71
2023/06/01 10:05:35;;;;;;;6.67;4.80;;;14.20;98.10;;;13.76;71.11;101436.41;5073985;28;20213;-71
2023/06/01 10:08:09;;;;;;;8.17;5.03;;;14.20;98.30;;;13.77;70.99;101440.81;5073583;28;20717;-71
2023/06/01 10:10:45;;;;;;;6.80;4.63;;;14.20;98.40;;;13.87;71.52;101438.81;5073773;28;20228;-71
2023/06/01 10:13:22;;;;;;;8.53;4.80;;;14.40;98.40;;;13.92;70.95;101433.75;5073437;28;20670;-71
2023/06/01 10:15:58;;;;;;;6.37;4.30;;;14.40;98.10;;;13.93;70.00;101432.75;5073732;28;20304;-71
2023/06/01 10:18:33;;;;;;;6.63;4.13;;;14.40;98.00;;;13.87;69.82;101433.44;5073420;28;20189;-71
2023/06/01 10:21:08;;;;;;;5.57;3.63;;;14.40;97.80;;;13.93;70.43;101430.91;5073404;28;20185;-71
2023/06/01 10:23:44;;;;;;;7.53;3.70;;;14.40;98.10;;;13.91;70.33;101432.06;5073709;28;20193;-71
2023/06/01 10:26:21;;;;;;;5.30;4.07;;;14.40;98.00;;;13.86;71.16;101432.59;5073677;28;20279;-71
2023/06/01 10:28:58;;;;;;;5.60;3.80;;;14.30;98.20;;;13.97;70.43;101431.44;5073670;28;20293;-71
2023/06/01 10:31:45;;;;;;;5.10;3.60;;;14.40;98.10;;;14.04;70.68;101433.28;5073458;28;20243;-71
2023/06/01 10:34:45;;;;;;;5.90;3.30;;;14.50;98.10;;;14.09;71.16;101430.09;5073585;28;20186;-71
2023/06/01 10:37:20;;;;;;;5.97;3.27;;;14.50;98.30;;;14.13;70.71;101426.06;5073572;28;20236;-71
2023/06/01 10:39:54;;;;;;;4.10;3.30;;;14.60;98.20;;;14.07;70.50;101422.19;5073134;28;20193;-71